Turtle Lake, WI (54889)

6:06 AM CST on December 26, 2014 (GMT -0600)
Cumberland Municipal | Change Station
CLOSE
Current Station
Airport
Location: Cumberland,
Elevation: 1240 ft
Nearby Weather Stations
Active Advisory: Winter Weather Advisory

Elev 1240 ft 45.51 °N, 91.98 °W | Updated 11 minutes ago

Overcast
Overcast
30 °F
Feels Like 24 °F
N
6
Wind Variable Wind from NNE

Today
High -- | Low -- °F
--% Chance of Precip.
Yesterday
High -- | Low -- °F
Precip. -- in
7:47 AM 4:31 PM
Waxing Crescent, 25% visible
Pressure 29.90 in
Visibility 7.0 miles
Clouds Overcast 700 ft
Windchill 24 °F
Dew Point 28 °F
Humidity 93%
Rainfall 0.00 in
Snow Depth Not available.
UV 0 out of 12
Pollen .10 out of 12
Air Quality Not available.
Flu Activity Not available.
METAR KUBE 261155Z AUTO 03005KT 7SM OVC007 M01/M02 A2990 RMK AO2

More Conditions Fewer Conditions

Pressure 29.90 in
Visibility 7.0 miles
Clouds Overcast 700 ft
Windchill 24 °F
Dew Point 28 °F
Humidity 93%
Rainfall 0.00 in
Snow Depth Not available.
UV 0 out of 12
Pollen .10 out of 12
Air Quality Not available.
Flu Activity Not available.
METAR KUBE 261155Z AUTO 03005KT 7SM OVC007 M01/M02 A2990 RMK AO2

More Conditions Fewer Conditions

10-Day Weather Forecast

Almanac

Astronomy

Dec. 26, 2014 Rise Set
Actual Time
Civil Twilight
Nautical Twilight
Astronomical Twilight
Moon
Length of Visible Light
Length of Day
Tomorrow will be .
, % of the Moon is Illuminated

Today's Extremes

State Highs State Lows

Community

WunderPhotos

Upload Photos

1,780,581 photos uploaded!

WunderBlogs® & News

Nearby

Air Quality

  Air Quality AQ Index Pollutant
Not available.

Snow Depth

Station Depth Elevation

Earthquake Activity

City Distance Mag. Time & Date
Minimum magnitude displayed is 2.5.

Coastal Water Temperatures

Place Temperature

Nearby Weather Stations